Troxelville, Pennsylvania
Current Conditions -  °F | °C
As of 8:53 PM on Tuesday 21 Oct 2014 (Local Time) from KSEG Reporting Station
Broken Clouds Broken Clouds  
Wind Chill: 53°   Ceiling: 11000
Heat Index: 53°   Visibility: 10mi
Dew Point: 47°   Wind: 5mph
Humidity: 80%   Direction: 340°NNW
Pressure: 29.91"   Gusts: NA
Location:  40.8°N, 77.21°W
Report Text: KSEG 220053Z AUTO 34004KT 10SM FEW060 BKN110 12/08 A2991 RMK AO2 SLP129 T01170083
Loading
Personal Weather Stations






























Interactive Weather Map
Tropical Storm Tracking
New forecast layout! Learn more

10-Day Weather Forecast

Advertisements
Track Severe Weather on mobile